sensor_id;sensor_type;location;lat;lon;timestamp;P1;durP1;ratioP1;P2;durP2;ratioP2
69199;SDS011;56313;49.804;9.952;2022-10-16T00:01:36;6.10;;;1.23;;
69199;SDS011;56313;49.804;9.952;2022-10-16T00:04:01;1.25;;;1.13;;
69199;SDS011;56313;49.804;9.952;2022-10-16T00:06:28;3.78;;;1.42;;
69199;SDS011;56313;49.804;9.952;2022-10-16T00:08:54;5.65;;;1.85;;
69199;SDS011;56313;49.804;9.952;2022-10-16T00:11:21;5.30;;;1.67;;
69199;SDS011;56313;49.804;9.952;2022-10-16T00:13:50;2.90;;;1.30;;
69199;SDS011;56313;49.804;9.952;2022-10-16T00:16:17;3.35;;;1.90;;
69199;SDS011;56313;49.804;9.952;2022-10-16T00:18:43;2.75;;;1.50;;
69199;SDS011;56313;49.804;9.952;2022-10-16T00:21:16;4.00;;;2.03;;
69199;SDS011;56313;49.804;9.952;2022-10-16T00:23:43;4.97;;;1.98;;
69199;SDS011;56313;49.804;9.952;2022-10-16T00:26:14;3.05;;;1.58;;
69199;SDS011;56313;49.804;9.952;2022-10-16T00:28:41;3.25;;;1.40;;
69199;SDS011;56313;49.804;9.952;2022-10-16T00:31:07;4.28;;;1.40;;
69199;SDS011;56313;49.804;9.952;2022-10-16T00:33:36;3.83;;;1.80;;
69199;SDS011;56313;49.804;9.952;2022-10-16T00:36:03;3.80;;;1.70;;
69199;SDS011;56313;49.804;9.952;2022-10-16T00:38:30;7.45;;;1.70;;
69199;SDS011;56313;49.804;9.952;2022-10-16T00:40:56;2.45;;;1.60;;
69199;SDS011;56313;49.804;9.952;2022-10-16T00:46:00;3.35;;;1.63;;
69199;SDS011;56313;49.804;9.952;2022-10-16T00:48:26;3.17;;;1.38;;
69199;SDS011;56313;49.804;9.952;2022-10-16T00:50:52;3.97;;;1.48;;
69199;SDS011;56313;49.804;9.952;2022-10-16T00:53:18;1.95;;;1.30;;
69199;SDS011;56313;49.804;9.952;2022-10-16T00:55:44;3.72;;;1.70;;
69199;SDS011;56313;49.804;9.952;2022-10-16T00:58:10;3.88;;;1.90;;
69199;SDS011;56313;49.804;9.952;2022-10-16T01:00:36;3.55;;;1.77;;
69199;SDS011;56313;49.804;9.952;2022-10-16T01:03:03;2.97;;;1.77;;
69199;SDS011;56313;49.804;9.952;2022-10-16T01:05:55;2.17;;;1.65;;
69199;SDS011;56313;49.804;9.952;2022-10-16T01:08:34;4.57;;;1.75;;
69199;SDS011;56313;49.804;9.952;2022-10-16T01:13:46;4.75;;;1.80;;
69199;SDS011;56313;49.804;9.952;2022-10-16T01:16:28;5.30;;;2.17;;
69199;SDS011;56313;49.804;9.952;2022-10-16T01:20:09;1.85;;;1.60;;
69199;SDS011;56313;49.804;9.952;2022-10-16T01:22:19;4.63;;;1.75;;
69199;SDS011;56313;49.804;9.952;2022-10-16T01:24:50;2.55;;;1.50;;
69199;SDS011;56313;49.804;9.952;2022-10-16T01:27:21;4.43;;;1.52;;
69199;SDS011;56313;49.804;9.952;2022-10-16T01:32:40;4.13;;;1.63;;
69199;SDS011;56313;49.804;9.952;2022-10-16T01:37:48;2.80;;;1.73;;
69199;SDS011;56313;49.804;9.952;2022-10-16T01:40:19;1.70;;;1.20;;
69199;SDS011;56313;49.804;9.952;2022-10-16T01:42:47;2.08;;;1.25;;
69199;SDS011;56313;49.804;9.952;2022-10-16T01:45:18;1.73;;;1.20;;
69199;SDS011;56313;49.804;9.952;2022-10-16T01:47:44;2.45;;;0.90;;
69199;SDS011;56313;49.804;9.952;2022-10-16T01:50:12;1.02;;;0.68;;
69199;SDS011;56313;49.804;9.952;2022-10-16T01:52:41;2.30;;;0.80;;
69199;SDS011;56313;49.804;9.952;2022-10-16T01:55:10;1.90;;;0.80;;
69199;SDS011;56313;49.804;9.952;2022-10-16T01:57:39;3.60;;;0.80;;
69199;SDS011;56313;49.804;9.952;2022-10-16T02:00:10;0.68;;;0.60;;
69199;SDS011;56313;49.804;9.952;2022-10-16T02:02:38;0.95;;;0.50;;
69199;SDS011;56313;49.804;9.952;2022-10-16T02:07:52;1.35;;;0.70;;
69199;SDS011;56313;49.804;9.952;2022-10-16T02:10:18;0.60;;;0.60;;
69199;SDS011;56313;49.804;9.952;2022-10-16T02:12:49;1.30;;;0.98;;
69199;SDS011;56313;49.804;9.952;2022-10-16T02:15:20;2.05;;;0.80;;
69199;SDS011;56313;49.804;9.952;2022-10-16T02:17:45;2.80;;;0.85;;
69199;SDS011;56313;49.804;9.952;2022-10-16T02:20:11;0.70;;;0.65;;
69199;SDS011;56313;49.804;9.952;2022-10-16T02:22:40;2.00;;;0.90;;
69199;SDS011;56313;49.804;9.952;2022-10-16T02:25:44;0.85;;;0.80;;
69199;SDS011;56313;49.804;9.952;2022-10-16T02:28:48;2.85;;;1.10;;
69199;SDS011;56313;49.804;9.952;2022-10-16T02:31:02;1.83;;;1.10;;
69199;SDS011;56313;49.804;9.952;2022-10-16T02:33:30;1.80;;;1.10;;
69199;SDS011;56313;49.804;9.952;2022-10-16T02:35:57;3.75;;;1.05;;
69199;SDS011;56313;49.804;9.952;2022-10-16T02:38:23;1.98;;;1.13;;
69199;SDS011;56313;49.804;9.952;2022-10-16T02:40:49;1.30;;;1.10;;
69199;SDS011;56313;49.804;9.952;2022-10-16T02:43:15;1.25;;;0.90;;
69199;SDS011;56313;49.804;9.952;2022-10-16T02:45:41;2.88;;;1.20;;
69199;SDS011;56313;49.804;9.952;2022-10-16T02:48:06;2.28;;;1.15;;
69199;SDS011;56313;49.804;9.952;2022-10-16T02:50:32;1.00;;;1.00;;
69199;SDS011;56313;49.804;9.952;2022-10-16T02:52:57;2.10;;;1.10;;
69199;SDS011;56313;49.804;9.952;2022-10-16T02:55:23;3.97;;;1.60;;
69199;SDS011;56313;49.804;9.952;2022-10-16T02:57:48;4.03;;;1.20;;
69199;SDS011;56313;49.804;9.952;2022-10-16T03:00:15;3.08;;;1.27;;
69199;SDS011;56313;49.804;9.952;2022-10-16T03:02:41;3.42;;;1.30;;
69199;SDS011;56313;49.804;9.952;2022-10-16T03:05:07;2.20;;;1.27;;
69199;SDS011;56313;49.804;9.952;2022-10-16T03:07:33;3.97;;;1.70;;
69199;SDS011;56313;49.804;9.952;2022-10-16T03:09:59;3.03;;;1.60;;
69199;SDS011;56313;49.804;9.952;2022-10-16T03:12:27;2.17;;;1.63;;
69199;SDS011;56313;49.804;9.952;2022-10-16T03:14:53;4.43;;;1.80;;
69199;SDS011;56313;49.804;9.952;2022-10-16T03:17:18;2.42;;;1.40;;
69199;SDS011;56313;49.804;9.952;2022-10-16T03:19:44;4.60;;;1.67;;
69199;SDS011;56313;49.804;9.952;2022-10-16T03:22:09;4.25;;;1.90;;
69199;SDS011;56313;49.804;9.952;2022-10-16T03:24:37;2.58;;;1.80;;
69199;SDS011;56313;49.804;9.952;2022-10-16T03:27:03;4.97;;;2.33;;
69199;SDS011;56313;49.804;9.952;2022-10-16T03:29:28;4.07;;;1.88;;
69199;SDS011;56313;49.804;9.952;2022-10-16T03:31:54;4.25;;;1.70;;
69199;SDS011;56313;49.804;9.952;2022-10-16T03:34:21;3.85;;;1.77;;
69199;SDS011;56313;49.804;9.952;2022-10-16T03:36:46;2.83;;;1.88;;
69199;SDS011;56313;49.804;9.952;2022-10-16T03:39:12;2.22;;;1.70;;
69199;SDS011;56313;49.804;9.952;2022-10-16T03:41:37;4.32;;;1.85;;
69199;SDS011;56313;49.804;9.952;2022-10-16T03:44:02;4.32;;;1.35;;
69199;SDS011;56313;49.804;9.952;2022-10-16T03:46:28;4.40;;;1.70;;
69199;SDS011;56313;49.804;9.952;2022-10-16T03:48:54;2.20;;;1.60;;
69199;SDS011;56313;49.804;9.952;2022-10-16T03:51:20;6.53;;;1.63;;
69199;SDS011;56313;49.804;9.952;2022-10-16T03:53:45;1.77;;;1.63;;
69199;SDS011;56313;49.804;9.952;2022-10-16T03:56:11;2.83;;;1.35;;
69199;SDS011;56313;49.804;9.952;2022-10-16T03:58:36;5.10;;;1.70;;
69199;SDS011;56313;49.804;9.952;2022-10-16T04:01:02;5.88;;;1.83;;
69199;SDS011;56313;49.804;9.952;2022-10-16T04:03:27;2.92;;;1.73;;
69199;SDS011;56313;49.804;9.952;2022-10-16T04:05:53;1.77;;;1.40;;
69199;SDS011;56313;49.804;9.952;2022-10-16T04:08:19;5.38;;;1.80;;
69199;SDS011;56313;49.804;9.952;2022-10-16T04:10:44;2.92;;;1.63;;
69199;SDS011;56313;49.804;9.952;2022-10-16T04:13:10;3.22;;;1.48;;
69199;SDS011;56313;49.804;9.952;2022-10-16T04:15:35;2.60;;;1.45;;
69199;SDS011;56313;49.804;9.952;2022-10-16T04:18:01;3.28;;;1.63;;
69199;SDS011;56313;49.804;9.952;2022-10-16T04:20:26;6.38;;;1.70;;
69199;SDS011;56313;49.804;9.952;2022-10-16T04:22:52;2.72;;;1.38;;
69199;SDS011;56313;49.804;9.952;2022-10-16T04:25:18;4.50;;;1.40;;
69199;SDS011;56313;49.804;9.952;2022-10-16T04:27:43;5.30;;;1.50;;
69199;SDS011;56313;49.804;9.952;2022-10-16T04:30:08;2.65;;;1.67;;
69199;SDS011;56313;49.804;9.952;2022-10-16T04:32:34;6.47;;;1.88;;
69199;SDS011;56313;49.804;9.952;2022-10-16T04:34:59;4.20;;;1.70;;
69199;SDS011;56313;49.804;9.952;2022-10-16T04:37:25;6.82;;;1.77;;
69199;SDS011;56313;49.804;9.952;2022-10-16T04:39:52;2.08;;;1.48;;
69199;SDS011;56313;49.804;9.952;2022-10-16T04:42:18;4.07;;;1.45;;
69199;SDS011;56313;49.804;9.952;2022-10-16T04:44:44;5.30;;;1.90;;
69199;SDS011;56313;49.804;9.952;2022-10-16T04:47:09;7.57;;;1.63;;
69199;SDS011;56313;49.804;9.952;2022-10-16T04:49:34;2.67;;;1.40;;
69199;SDS011;56313;49.804;9.952;2022-10-16T04:52:00;2.97;;;1.60;;
69199;SDS011;56313;49.804;9.952;2022-10-16T04:54:25;4.03;;;1.83;;
69199;SDS011;56313;49.804;9.952;2022-10-16T04:56:50;3.00;;;1.73;;
69199;SDS011;56313;49.804;9.952;2022-10-16T04:59:17;2.28;;;1.73;;
69199;SDS011;56313;49.804;9.952;2022-10-16T05:01:44;3.88;;;1.35;;
69199;SDS011;56313;49.804;9.952;2022-10-16T05:04:10;4.07;;;1.38;;
69199;SDS011;56313;49.804;9.952;2022-10-16T05:06:36;1.75;;;1.40;;
69199;SDS011;56313;49.804;9.952;2022-10-16T05:09:05;4.95;;;1.75;;
69199;SDS011;56313;49.804;9.952;2022-10-16T05:11:30;3.63;;;1.65;;
69199;SDS011;56313;49.804;9.952;2022-10-16T05:13:56;6.07;;;1.92;;
69199;SDS011;56313;49.804;9.952;2022-10-16T05:16:22;1.80;;;1.58;;
69199;SDS011;56313;49.804;9.952;2022-10-16T05:18:47;2.92;;;1.70;;
69199;SDS011;56313;49.804;9.952;2022-10-16T05:21:13;2.30;;;1.30;;
69199;SDS011;56313;49.804;9.952;2022-10-16T05:23:38;5.15;;;1.50;;
69199;SDS011;56313;49.804;9.952;2022-10-16T05:26:04;4.93;;;1.60;;
69199;SDS011;56313;49.804;9.952;2022-10-16T05:28:30;1.73;;;1.17;;
69199;SDS011;56313;49.804;9.952;2022-10-16T05:30:56;4.13;;;1.48;;
69199;SDS011;56313;49.804;9.952;2022-10-16T05:33:23;2.15;;;1.55;;
69199;SDS011;56313;49.804;9.952;2022-10-16T05:35:50;6.10;;;1.77;;
69199;SDS011;56313;49.804;9.952;2022-10-16T05:38:16;4.95;;;1.67;;
69199;SDS011;56313;49.804;9.952;2022-10-16T05:40:42;5.32;;;1.52;;
69199;SDS011;56313;49.804;9.952;2022-10-16T05:43:07;4.35;;;1.55;;
69199;SDS011;56313;49.804;9.952;2022-10-16T05:45:33;2.88;;;1.20;;
69199;SDS011;56313;49.804;9.952;2022-10-16T05:47:59;3.67;;;1.52;;
69199;SDS011;56313;49.804;9.952;2022-10-16T05:50:25;2.83;;;1.30;;
69199;SDS011;56313;49.804;9.952;2022-10-16T05:52:50;2.95;;;1.67;;
69199;SDS011;56313;49.804;9.952;2022-10-16T05:55:16;2.90;;;1.67;;
69199;SDS011;56313;49.804;9.952;2022-10-16T05:57:41;5.43;;;2.13;;
69199;SDS011;56313;49.804;9.952;2022-10-16T06:00:07;8.60;;;1.75;;
69199;SDS011;56313;49.804;9.952;2022-10-16T06:02:33;2.90;;;1.65;;
69199;SDS011;56313;49.804;9.952;2022-10-16T06:04:58;7.53;;;1.60;;
69199;SDS011;56313;49.804;9.952;2022-10-16T06:07:24;4.72;;;1.80;;
69199;SDS011;56313;49.804;9.952;2022-10-16T06:09:52;2.78;;;1.40;;
69199;SDS011;56313;49.804;9.952;2022-10-16T06:12:18;5.50;;;1.40;;
69199;SDS011;56313;49.804;9.952;2022-10-16T06:14:44;3.97;;;1.73;;
69199;SDS011;56313;49.804;9.952;2022-10-16T06:17:11;4.72;;;1.38;;
69199;SDS011;56313;49.804;9.952;2022-10-16T06:19:38;6.28;;;1.65;;
69199;SDS011;56313;49.804;9.952;2022-10-16T06:22:03;4.30;;;1.88;;
69199;SDS011;56313;49.804;9.952;2022-10-16T06:24:29;2.42;;;1.75;;
69199;SDS011;56313;49.804;9.952;2022-10-16T06:26:54;1.75;;;1.60;;
69199;SDS011;56313;49.804;9.952;2022-10-16T06:29:20;3.33;;;1.45;;
69199;SDS011;56313;49.804;9.952;2022-10-16T06:31:45;3.95;;;1.73;;
69199;SDS011;56313;49.804;9.952;2022-10-16T06:34:10;4.25;;;1.33;;
69199;SDS011;56313;49.804;9.952;2022-10-16T06:36:37;3.65;;;1.90;;
69199;SDS011;56313;49.804;9.952;2022-10-16T06:39:03;3.60;;;1.83;;
69199;SDS011;56313;49.804;9.952;2022-10-16T06:41:30;3.47;;;1.70;;
69199;SDS011;56313;49.804;9.952;2022-10-16T06:43:58;6.65;;;1.88;;
69199;SDS011;56313;49.804;9.952;2022-10-16T06:46:25;5.28;;;2.20;;
69199;SDS011;56313;49.804;9.952;2022-10-16T06:48:51;5.78;;;2.50;;
69199;SDS011;56313;49.804;9.952;2022-10-16T06:51:18;2.70;;;1.63;;
69199;SDS011;56313;49.804;9.952;2022-10-16T06:53:46;5.78;;;1.80;;
69199;SDS011;56313;49.804;9.952;2022-10-16T06:56:17;3.38;;;2.03;;
69199;SDS011;56313;49.804;9.952;2022-10-16T06:58:43;5.78;;;2.17;;
69199;SDS011;56313;49.804;9.952;2022-10-16T07:01:09;3.50;;;1.70;;
69199;SDS011;56313;49.804;9.952;2022-10-16T07:03:42;2.88;;;1.58;;
69199;SDS011;56313;49.804;9.952;2022-10-16T07:08:37;4.82;;;1.42;;
69199;SDS011;56313;49.804;9.952;2022-10-16T07:11:12;3.88;;;1.50;;
69199;SDS011;56313;49.804;9.952;2022-10-16T07:13:39;5.18;;;1.73;;
69199;SDS011;56313;49.804;9.952;2022-10-16T07:16:10;3.65;;;1.80;;
69199;SDS011;56313;49.804;9.952;2022-10-16T07:18:37;4.93;;;1.90;;
69199;SDS011;56313;49.804;9.952;2022-10-16T07:21:05;3.38;;;2.20;;
69199;SDS011;56313;49.804;9.952;2022-10-16T07:23:32;4.25;;;3.28;;
69199;SDS011;56313;49.804;9.952;2022-10-16T07:25:57;6.68;;;2.58;;
69199;SDS011;56313;49.804;9.952;2022-10-16T07:28:23;3.00;;;2.40;;
69199;SDS011;56313;49.804;9.952;2022-10-16T07:30:48;4.28;;;2.13;;
69199;SDS011;56313;49.804;9.952;2022-10-16T07:36:04;18.30;;;5.07;;
69199;SDS011;56313;49.804;9.952;2022-10-16T07:38:30;13.30;;;3.47;;
69199;SDS011;56313;49.804;9.952;2022-10-16T07:41:00;5.55;;;2.75;;
69199;SDS011;56313;49.804;9.952;2022-10-16T07:43:30;9.48;;;2.80;;
69199;SDS011;56313;49.804;9.952;2022-10-16T07:45:56;9.98;;;2.85;;
69199;SDS011;56313;49.804;9.952;2022-10-16T07:48:22;8.32;;;2.53;;
69199;SDS011;56313;49.804;9.952;2022-10-16T07:50:48;3.70;;;2.58;;
69199;SDS011;56313;49.804;9.952;2022-10-16T07:53:19;7.13;;;3.10;;
69199;SDS011;56313;49.804;9.952;2022-10-16T07:56:05;5.43;;;2.58;;
69199;SDS011;56313;49.804;9.952;2022-10-16T07:58:34;6.22;;;2.17;;
69199;SDS011;56313;49.804;9.952;2022-10-16T08:01:07;3.90;;;2.40;;
69199;SDS011;56313;49.804;9.952;2022-10-16T08:03:44;3.25;;;2.30;;
69199;SDS011;56313;49.804;9.952;2022-10-16T08:06:13;4.78;;;1.98;;
69199;SDS011;56313;49.804;9.952;2022-10-16T08:08:42;3.08;;;2.25;;
69199;SDS011;56313;49.804;9.952;2022-10-16T08:11:08;3.55;;;2.92;;
69199;SDS011;56313;49.804;9.952;2022-10-16T08:13:33;6.20;;;2.40;;
69199;SDS011;56313;49.804;9.952;2022-10-16T08:15:59;4.38;;;2.63;;
69199;SDS011;56313;49.804;9.952;2022-10-16T08:18:25;8.25;;;2.90;;
69199;SDS011;56313;49.804;9.952;2022-10-16T08:20:57;4.65;;;2.88;;
69199;SDS011;56313;49.804;9.952;2022-10-16T08:23:25;4.57;;;2.00;;
69199;SDS011;56313;49.804;9.952;2022-10-16T08:25:51;4.60;;;2.05;;
69199;SDS011;56313;49.804;9.952;2022-10-16T08:28:18;5.18;;;2.33;;
69199;SDS011;56313;49.804;9.952;2022-10-16T08:30:44;6.55;;;2.60;;
69199;SDS011;56313;49.804;9.952;2022-10-16T08:33:10;3.92;;;2.00;;
69199;SDS011;56313;49.804;9.952;2022-10-16T08:35:35;4.82;;;2.40;;
69199;SDS011;56313;49.804;9.952;2022-10-16T08:38:03;5.45;;;2.55;;
69199;SDS011;56313;49.804;9.952;2022-10-16T08:40:29;3.88;;;2.85;;
69199;SDS011;56313;49.804;9.952;2022-10-16T08:51:06;5.72;;;2.78;;
69199;SDS011;56313;49.804;9.952;2022-10-16T08:53:49;5.55;;;2.65;;
69199;SDS011;56313;49.804;9.952;2022-10-16T08:56:17;6.07;;;3.35;;
69199;SDS011;56313;49.804;9.952;2022-10-16T09:01:45;4.32;;;3.78;;
69199;SDS011;56313;49.804;9.952;2022-10-16T09:07:01;6.72;;;4.43;;
69199;SDS011;56313;49.804;9.952;2022-10-16T09:15:17;5.32;;;2.97;;
69199;SDS011;56313;49.804;9.952;2022-10-16T09:23:17;7.72;;;3.17;;
69199;SDS011;56313;49.804;9.952;2022-10-16T09:25:51;6.30;;;2.97;;
69199;SDS011;56313;49.804;9.952;2022-10-16T09:28:18;9.55;;;3.05;;
69199;SDS011;56313;49.804;9.952;2022-10-16T09:30:44;5.07;;;2.63;;
69199;SDS011;56313;49.804;9.952;2022-10-16T09:33:11;4.32;;;2.45;;
69199;SDS011;56313;49.804;9.952;2022-10-16T09:35:39;4.15;;;2.53;;
69199;SDS011;56313;49.804;9.952;2022-10-16T09:38:05;7.07;;;2.65;;
69199;SDS011;56313;49.804;9.952;2022-10-16T09:40:33;3.80;;;2.30;;
69199;SDS011;56313;49.804;9.952;2022-10-16T09:43:02;3.38;;;2.25;;
69199;SDS011;56313;49.804;9.952;2022-10-16T09:45:37;5.30;;;2.65;;
69199;SDS011;56313;49.804;9.952;2022-10-16T09:48:10;4.63;;;2.10;;
69199;SDS011;56313;49.804;9.952;2022-10-16T09:50:37;2.83;;;2.28;;
69199;SDS011;56313;49.804;9.952;2022-10-16T09:53:10;5.22;;;2.78;;
69199;SDS011;56313;49.804;9.952;2022-10-16T09:55:47;6.78;;;2.50;;
69199;SDS011;56313;49.804;9.952;2022-10-16T09:58:16;8.25;;;3.05;;
69199;SDS011;56313;49.804;9.952;2022-10-16T10:00:42;4.18;;;2.58;;
69199;SDS011;56313;49.804;9.952;2022-10-16T10:03:33;7.50;;;2.53;;
69199;SDS011;56313;49.804;9.952;2022-10-16T10:06:05;4.53;;;2.20;;
69199;SDS011;56313;49.804;9.952;2022-10-16T10:08:54;5.82;;;2.90;;
69199;SDS011;56313;49.804;9.952;2022-10-16T10:11:38;6.35;;;2.45;;
69199;SDS011;56313;49.804;9.952;2022-10-16T10:14:26;4.63;;;2.67;;
69199;SDS011;56313;49.804;9.952;2022-10-16T10:19:29;7.80;;;3.00;;
69199;SDS011;56313;49.804;9.952;2022-10-16T10:22:10;9.82;;;2.78;;
69199;SDS011;56313;49.804;9.952;2022-10-16T10:24:40;7.53;;;2.70;;
69199;SDS011;56313;49.804;9.952;2022-10-16T10:27:08;7.53;;;2.40;;
69199;SDS011;56313;49.804;9.952;2022-10-16T10:33:24;10.63;;;5.95;;
69199;SDS011;56313;49.804;9.952;2022-10-16T10:41:09;7.97;;;2.92;;
69199;SDS011;56313;49.804;9.952;2022-10-16T10:44:04;7.10;;;3.40;;
69199;SDS011;56313;49.804;9.952;2022-10-16T10:46:55;3.72;;;2.78;;
69199;SDS011;56313;49.804;9.952;2022-10-16T10:49:47;5.97;;;3.45;;
69199;SDS011;56313;49.804;9.952;2022-10-16T10:52:27;4.72;;;2.97;;
69199;SDS011;56313;49.804;9.952;2022-10-16T10:55:16;4.95;;;3.22;;
69199;SDS011;56313;49.804;9.952;2022-10-16T11:00:57;6.43;;;3.50;;
69199;SDS011;56313;49.804;9.952;2022-10-16T11:06:22;8.30;;;3.63;;
69199;SDS011;56313;49.804;9.952;2022-10-16T11:09:02;4.60;;;3.30;;
69199;SDS011;56313;49.804;9.952;2022-10-16T11:11:41;3.97;;;3.05;;
69199;SDS011;56313;49.804;9.952;2022-10-16T11:14:14;5.80;;;2.80;;
69199;SDS011;56313;49.804;9.952;2022-10-16T11:22:23;5.53;;;2.60;;
69199;SDS011;56313;49.804;9.952;2022-10-16T11:25:11;4.07;;;2.60;;
69199;SDS011;56313;49.804;9.952;2022-10-16T11:30:25;5.20;;;2.63;;
69199;SDS011;56313;49.804;9.952;2022-10-16T11:38:03;6.53;;;3.22;;
69199;SDS011;56313;49.804;9.952;2022-10-16T11:40:31;5.38;;;2.58;;
69199;SDS011;56313;49.804;9.952;2022-10-16T11:43:04;4.45;;;2.60;;
69199;SDS011;56313;49.804;9.952;2022-10-16T11:45:40;3.65;;;2.13;;
69199;SDS011;56313;49.804;9.952;2022-10-16T11:50:58;3.20;;;2.30;;
69199;SDS011;56313;49.804;9.952;2022-10-16T11:53:34;4.45;;;2.13;;
69199;SDS011;56313;49.804;9.952;2022-10-16T11:56:17;5.82;;;2.50;;
69199;SDS011;56313;49.804;9.952;2022-10-16T11:58:48;6.95;;;3.10;;
69199;SDS011;56313;49.804;9.952;2022-10-16T12:01:24;4.90;;;2.80;;
69199;SDS011;56313;49.804;9.952;2022-10-16T12:07:09;3.22;;;1.80;;
69199;SDS011;56313;49.804;9.952;2022-10-16T12:09:40;2.38;;;1.58;;
69199;SDS011;56313;49.804;9.952;2022-10-16T12:17:35;7.13;;;1.90;;
69199;SDS011;56313;49.804;9.952;2022-10-16T12:20:44;4.43;;;2.20;;
69199;SDS011;56313;49.804;9.952;2022-10-16T12:25:28;2.65;;;1.75;;
69199;SDS011;56313;49.804;9.952;2022-10-16T12:28:02;3.47;;;1.80;;
69199;SDS011;56313;49.804;9.952;2022-10-16T12:34:01;5.20;;;2.10;;
69199;SDS011;56313;49.804;9.952;2022-10-16T12:36:29;4.38;;;2.40;;
69199;SDS011;56313;49.804;9.952;2022-10-16T12:38:57;4.85;;;2.08;;
69199;SDS011;56313;49.804;9.952;2022-10-16T12:41:24;4.72;;;1.88;;
69199;SDS011;56313;49.804;9.952;2022-10-16T12:43:58;4.03;;;1.60;;
69199;SDS011;56313;49.804;9.952;2022-10-16T12:52:23;3.83;;;2.03;;
69199;SDS011;56313;49.804;9.952;2022-10-16T12:54:52;4.88;;;2.97;;
69199;SDS011;56313;49.804;9.952;2022-10-16T12:57:27;4.75;;;1.70;;
69199;SDS011;56313;49.804;9.952;2022-10-16T13:19:14;3.88;;;2.20;;
69199;SDS011;56313;49.804;9.952;2022-10-16T13:22:05;6.30;;;2.55;;
69199;SDS011;56313;49.804;9.952;2022-10-16T13:30:28;4.88;;;2.28;;
69199;SDS011;56313;49.804;9.952;2022-10-16T13:33:06;3.25;;;2.50;;
69199;SDS011;56313;49.804;9.952;2022-10-16T13:35:35;5.18;;;2.00;;
69199;SDS011;56313;49.804;9.952;2022-10-16T13:40:36;3.25;;;1.98;;
69199;SDS011;56313;49.804;9.952;2022-10-16T13:43:07;2.92;;;2.25;;
69199;SDS011;56313;49.804;9.952;2022-10-16T13:45:59;3.47;;;2.65;;
69199;SDS011;56313;49.804;9.952;2022-10-16T13:48:39;6.40;;;3.15;;
69199;SDS011;56313;49.804;9.952;2022-10-16T13:51:15;4.20;;;2.15;;
69199;SDS011;56313;49.804;9.952;2022-10-16T13:53:42;4.22;;;1.75;;
69199;SDS011;56313;49.804;9.952;2022-10-16T13:56:14;5.18;;;2.03;;
69199;SDS011;56313;49.804;9.952;2022-10-16T13:58:41;4.45;;;1.90;;
69199;SDS011;56313;49.804;9.952;2022-10-16T14:03:53;4.38;;;2.30;;
69199;SDS011;56313;49.804;9.952;2022-10-16T14:06:33;6.03;;;2.20;;
69199;SDS011;56313;49.804;9.952;2022-10-16T14:09:05;3.42;;;2.00;;
69199;SDS011;56313;49.804;9.952;2022-10-16T14:11:33;3.40;;;1.88;;
69199;SDS011;56313;49.804;9.952;2022-10-16T14:14:04;5.15;;;2.53;;
69199;SDS011;56313;49.804;9.952;2022-10-16T14:16:29;3.45;;;2.28;;
69199;SDS011;56313;49.804;9.952;2022-10-16T14:19:04;4.68;;;2.53;;
69199;SDS011;56313;49.804;9.952;2022-10-16T14:21:35;4.00;;;2.05;;
69199;SDS011;56313;49.804;9.952;2022-10-16T14:24:12;5.40;;;2.28;;
69199;SDS011;56313;49.804;9.952;2022-10-16T14:26:47;4.85;;;2.65;;
69199;SDS011;56313;49.804;9.952;2022-10-16T14:29:14;5.18;;;2.20;;
69199;SDS011;56313;49.804;9.952;2022-10-16T14:31:42;2.80;;;2.20;;
69199;SDS011;56313;49.804;9.952;2022-10-16T14:34:27;3.40;;;2.58;;
69199;SDS011;56313;49.804;9.952;2022-10-16T14:36:58;4.25;;;2.20;;
69199;SDS011;56313;49.804;9.952;2022-10-16T14:39:48;4.03;;;2.20;;
69199;SDS011;56313;49.804;9.952;2022-10-16T14:42:24;9.73;;;2.50;;
69199;SDS011;56313;49.804;9.952;2022-10-16T14:44:57;6.67;;;2.60;;
69199;SDS011;56313;49.804;9.952;2022-10-16T14:47:24;4.25;;;2.10;;
69199;SDS011;56313;49.804;9.952;2022-10-16T14:49:51;4.47;;;2.25;;
69199;SDS011;56313;49.804;9.952;2022-10-16T14:52:20;5.70;;;2.05;;
69199;SDS011;56313;49.804;9.952;2022-10-16T14:54:49;6.05;;;2.35;;
69199;SDS011;56313;49.804;9.952;2022-10-16T14:57:22;4.70;;;2.70;;
69199;SDS011;56313;49.804;9.952;2022-10-16T14:59:51;3.53;;;2.33;;
69199;SDS011;56313;49.804;9.952;2022-10-16T15:04:46;5.28;;;2.70;;
69199;SDS011;56313;49.804;9.952;2022-10-16T15:07:12;6.32;;;2.97;;
69199;SDS011;56313;49.804;9.952;2022-10-16T15:09:37;4.13;;;2.65;;
69199;SDS011;56313;49.804;9.952;2022-10-16T15:12:03;5.53;;;2.70;;
69199;SDS011;56313;49.804;9.952;2022-10-16T15:14:28;9.50;;;3.08;;
69199;SDS011;56313;49.804;9.952;2022-10-16T15:16:54;7.03;;;3.20;;
69199;SDS011;56313;49.804;9.952;2022-10-16T15:19:19;7.43;;;3.10;;
69199;SDS011;56313;49.804;9.952;2022-10-16T15:21:49;10.45;;;3.03;;
69199;SDS011;56313;49.804;9.952;2022-10-16T15:24:14;5.65;;;3.13;;
69199;SDS011;56313;49.804;9.952;2022-10-16T15:26:40;5.72;;;3.53;;
69199;SDS011;56313;49.804;9.952;2022-10-16T15:29:06;5.22;;;3.20;;
69199;SDS011;56313;49.804;9.952;2022-10-16T15:31:31;6.78;;;3.45;;
69199;SDS011;56313;49.804;9.952;2022-10-16T15:33:57;5.40;;;3.10;;
69199;SDS011;56313;49.804;9.952;2022-10-16T15:36:32;4.07;;;3.05;;
69199;SDS011;56313;49.804;9.952;2022-10-16T15:39:01;6.13;;;2.90;;
69199;SDS011;56313;49.804;9.952;2022-10-16T15:41:48;6.15;;;3.17;;
69199;SDS011;56313;49.804;9.952;2022-10-16T15:44:18;9.20;;;3.90;;
69199;SDS011;56313;49.804;9.952;2022-10-16T15:46:44;6.18;;;4.10;;
69199;SDS011;56313;49.804;9.952;2022-10-16T15:49:10;5.95;;;3.50;;
69199;SDS011;56313;49.804;9.952;2022-10-16T15:51:40;7.95;;;4.03;;
69199;SDS011;56313;49.804;9.952;2022-10-16T15:54:06;6.68;;;3.83;;
69199;SDS011;56313;49.804;9.952;2022-10-16T15:56:32;10.18;;;3.60;;
69199;SDS011;56313;49.804;9.952;2022-10-16T15:58:58;5.20;;;3.20;;
69199;SDS011;56313;49.804;9.952;2022-10-16T16:01:26;11.00;;;3.53;;
69199;SDS011;56313;49.804;9.952;2022-10-16T16:03:53;4.80;;;3.20;;
69199;SDS011;56313;49.804;9.952;2022-10-16T16:06:19;7.03;;;3.05;;
69199;SDS011;56313;49.804;9.952;2022-10-16T16:08:45;6.30;;;2.97;;
69199;SDS011;56313;49.804;9.952;2022-10-16T16:11:12;6.40;;;3.50;;
69199;SDS011;56313;49.804;9.952;2022-10-16T16:13:38;7.38;;;3.70;;
69199;SDS011;56313;49.804;9.952;2022-10-16T16:16:05;5.75;;;3.20;;
69199;SDS011;56313;49.804;9.952;2022-10-16T16:18:32;6.75;;;3.22;;
69199;SDS011;56313;49.804;9.952;2022-10-16T16:20:58;8.15;;;3.15;;
69199;SDS011;56313;49.804;9.952;2022-10-16T16:23:23;5.93;;;2.97;;
69199;SDS011;56313;49.804;9.952;2022-10-16T16:26:05;5.95;;;3.25;;
69199;SDS011;56313;49.804;9.952;2022-10-16T16:28:34;8.95;;;3.33;;
69199;SDS011;56313;49.804;9.952;2022-10-16T16:31:00;8.35;;;3.33;;
69199;SDS011;56313;49.804;9.952;2022-10-16T16:33:26;6.63;;;3.72;;
69199;SDS011;56313;49.804;9.952;2022-10-16T16:35:55;7.45;;;4.10;;
69199;SDS011;56313;49.804;9.952;2022-10-16T16:38:21;9.80;;;4.20;;
69199;SDS011;56313;49.804;9.952;2022-10-16T16:40:47;7.55;;;3.10;;
69199;SDS011;56313;49.804;9.952;2022-10-16T16:43:12;4.35;;;3.00;;
69199;SDS011;56313;49.804;9.952;2022-10-16T16:45:37;8.20;;;3.63;;
69199;SDS011;56313;49.804;9.952;2022-10-16T16:48:03;6.20;;;3.83;;
69199;SDS011;56313;49.804;9.952;2022-10-16T16:50:48;7.13;;;3.42;;
69199;SDS011;56313;49.804;9.952;2022-10-16T16:55:39;5.83;;;4.03;;
69199;SDS011;56313;49.804;9.952;2022-10-16T16:58:04;5.75;;;3.78;;
69199;SDS011;56313;49.804;9.952;2022-10-16T17:00:30;9.40;;;3.40;;
69199;SDS011;56313;49.804;9.952;2022-10-16T17:02:56;7.97;;;3.72;;
69199;SDS011;56313;49.804;9.952;2022-10-16T17:05:22;9.57;;;3.60;;
69199;SDS011;56313;49.804;9.952;2022-10-16T17:07:47;9.32;;;3.40;;
69199;SDS011;56313;49.804;9.952;2022-10-16T17:10:13;8.00;;;3.92;;
69199;SDS011;56313;49.804;9.952;2022-10-16T17:12:38;10.73;;;4.20;;
69199;SDS011;56313;49.804;9.952;2022-10-16T17:15:04;8.82;;;3.88;;